sensor_id;sensor_type;location;lat;lon;timestamp;temperature;humidity
5246;DHT22;54412;51.206;6.888;2023-06-14T00:01:52;21.30;85.70
5246;DHT22;54412;51.206;6.888;2023-06-14T00:04:17;21.40;85.90
5246;DHT22;54412;51.206;6.888;2023-06-14T00:06:44;21.40;85.20
5246;DHT22;54412;51.206;6.888;2023-06-14T00:09:11;21.40;85.30
5246;DHT22;54412;51.206;6.888;2023-06-14T00:11:42;21.30;85.40
5246;DHT22;54412;51.206;6.888;2023-06-14T00:14:08;21.40;85.80
5246;DHT22;54412;51.206;6.888;2023-06-14T00:16:35;21.40;84.20
5246;DHT22;54412;51.206;6.888;2023-06-14T00:19:02;21.40;84.10
5246;DHT22;54412;51.206;6.888;2023-06-14T00:21:31;21.40;82.90
5246;DHT22;54412;51.206;6.888;2023-06-14T00:24:01;21.50;83.50
5246;DHT22;54412;51.206;6.888;2023-06-14T00:26:26;21.60;83.10
5246;DHT22;54412;51.206;6.888;2023-06-14T00:28:53;21.50;82.70
5246;DHT22;54412;51.206;6.888;2023-06-14T00:31:20;21.50;82.80
5246;DHT22;54412;51.206;6.888;2023-06-14T00:33:46;21.50;83.60
5246;DHT22;54412;51.206;6.888;2023-06-14T00:36:12;21.40;83.80
5246;DHT22;54412;51.206;6.888;2023-06-14T00:38:38;21.40;83.40
5246;DHT22;54412;51.206;6.888;2023-06-14T00:41:03;21.40;84.00
5246;DHT22;54412;51.206;6.888;2023-06-14T00:43:29;21.40;85.60
5246;DHT22;54412;51.206;6.888;2023-06-14T00:45:55;21.30;85.20
5246;DHT22;54412;51.206;6.888;2023-06-14T00:48:21;21.30;85.70
5246;DHT22;54412;51.206;6.888;2023-06-14T00:50:49;21.30;86.30
5246;DHT22;54412;51.206;6.888;2023-06-14T00:53:18;21.10;86.30
5246;DHT22;54412;51.206;6.888;2023-06-14T00:55:46;21.10;86.90
5246;DHT22;54412;51.206;6.888;2023-06-14T00:58:12;21.00;86.70
5246;DHT22;54412;51.206;6.888;2023-06-14T01:00:39;20.80;87.10
5246;DHT22;54412;51.206;6.888;2023-06-14T01:03:05;20.80;87.20
5246;DHT22;54412;51.206;6.888;2023-06-14T01:05:31;20.70;88.10
5246;DHT22;54412;51.206;6.888;2023-06-14T01:08:26;20.80;87.00
5246;DHT22;54412;51.206;6.888;2023-06-14T01:11:07;20.90;86.60
5246;DHT22;54412;51.206;6.888;2023-06-14T01:13:40;20.90;86.20
5246;DHT22;54412;51.206;6.888;2023-06-14T01:16:10;20.90;86.10
5246;DHT22;54412;51.206;6.888;2023-06-14T01:18:37;20.90;86.00
5246;DHT22;54412;51.206;6.888;2023-06-14T01:21:03;21.10;85.60
5246;DHT22;54412;51.206;6.888;2023-06-14T01:23:32;20.90;85.50
5246;DHT22;54412;51.206;6.888;2023-06-14T01:26:00;21.00;85.70
5246;DHT22;54412;51.206;6.888;2023-06-14T01:28:28;21.10;85.60
5246;DHT22;54412;51.206;6.888;2023-06-14T01:31:00;21.10;85.30
5246;DHT22;54412;51.206;6.888;2023-06-14T01:33:30;21.10;85.10
5246;DHT22;54412;51.206;6.888;2023-06-14T01:35:59;21.10;85.50
5246;DHT22;54412;51.206;6.888;2023-06-14T01:38:27;21.10;85.60
5246;DHT22;54412;51.206;6.888;2023-06-14T01:40:55;21.10;85.60
5246;DHT22;54412;51.206;6.888;2023-06-14T01:43:23;21.10;85.80
5246;DHT22;54412;51.206;6.888;2023-06-14T01:45:53;21.00;85.60
5246;DHT22;54412;51.206;6.888;2023-06-14T01:48:21;20.80;85.80
5246;DHT22;54412;51.206;6.888;2023-06-14T01:50:48;20.80;86.00
5246;DHT22;54412;51.206;6.888;2023-06-14T01:53:15;20.80;85.90
5246;DHT22;54412;51.206;6.888;2023-06-14T01:55:41;20.90;86.10
5246;DHT22;54412;51.206;6.888;2023-06-14T01:58:08;20.90;85.80
5246;DHT22;54412;51.206;6.888;2023-06-14T02:00:35;20.90;85.70
5246;DHT22;54412;51.206;6.888;2023-06-14T02:03:01;21.00;85.40
5246;DHT22;54412;51.206;6.888;2023-06-14T02:05:29;20.90;85.70
5246;DHT22;54412;51.206;6.888;2023-06-14T02:07:55;20.80;86.30
5246;DHT22;54412;51.206;6.888;2023-06-14T02:10:21;20.80;87.00
5246;DHT22;54412;51.206;6.888;2023-06-14T02:12:47;20.60;87.30
5246;DHT22;54412;51.206;6.888;2023-06-14T02:15:13;20.50;87.90
5246;DHT22;54412;51.206;6.888;2023-06-14T02:17:46;20.30;88.80
5246;DHT22;54412;51.206;6.888;2023-06-14T02:20:17;20.20;88.30
5246;DHT22;54412;51.206;6.888;2023-06-14T02:22:44;20.20;88.60
5246;DHT22;54412;51.206;6.888;2023-06-14T02:25:10;20.20;88.50
5246;DHT22;54412;51.206;6.888;2023-06-14T02:27:36;20.20;88.70
5246;DHT22;54412;51.206;6.888;2023-06-14T02:30:02;20.20;88.50
5246;DHT22;54412;51.206;6.888;2023-06-14T02:32:28;20.10;88.50
5246;DHT22;54412;51.206;6.888;2023-06-14T02:34:54;20.00;88.70
5246;DHT22;54412;51.206;6.888;2023-06-14T02:37:20;20.20;88.70
5246;DHT22;54412;51.206;6.888;2023-06-14T02:39:46;20.20;88.70
5246;DHT22;54412;51.206;6.888;2023-06-14T02:42:12;20.20;88.50
5246;DHT22;54412;51.206;6.888;2023-06-14T02:44:37;20.10;89.10
5246;DHT22;54412;51.206;6.888;2023-06-14T02:47:04;20.20;88.40
5246;DHT22;54412;51.206;6.888;2023-06-14T02:49:30;20.10;88.50
5246;DHT22;54412;51.206;6.888;2023-06-14T02:51:56;20.00;89.10
5246;DHT22;54412;51.206;6.888;2023-06-14T02:54:22;20.10;88.50
5246;DHT22;54412;51.206;6.888;2023-06-14T02:56:48;20.10;88.80
5246;DHT22;54412;51.206;6.888;2023-06-14T02:59:13;20.20;88.90
5246;DHT22;54412;51.206;6.888;2023-06-14T03:01:40;20.20;88.40
5246;DHT22;54412;51.206;6.888;2023-06-14T03:04:09;20.20;88.50
5246;DHT22;54412;51.206;6.888;2023-06-14T03:06:35;20.20;88.10
5246;DHT22;54412;51.206;6.888;2023-06-14T03:09:02;20.20;87.90
5246;DHT22;54412;51.206;6.888;2023-06-14T03:11:30;20.30;86.90
5246;DHT22;54412;51.206;6.888;2023-06-14T03:13:56;20.20;86.70
5246;DHT22;54412;51.206;6.888;2023-06-14T03:16:22;20.30;86.60
5246;DHT22;54412;51.206;6.888;2023-06-14T03:18:52;20.40;86.40
5246;DHT22;54412;51.206;6.888;2023-06-14T03:21:19;20.40;86.50
5246;DHT22;54412;51.206;6.888;2023-06-14T03:23:46;20.30;86.40
5246;DHT22;54412;51.206;6.888;2023-06-14T03:26:12;20.30;86.70
5246;DHT22;54412;51.206;6.888;2023-06-14T03:28:39;20.10;86.90
5246;DHT22;54412;51.206;6.888;2023-06-14T03:31:05;20.10;87.30
5246;DHT22;54412;51.206;6.888;2023-06-14T03:33:31;20.10;86.90
5246;DHT22;54412;51.206;6.888;2023-06-14T03:35:57;20.00;88.30
5246;DHT22;54412;51.206;6.888;2023-06-14T03:38:23;20.00;89.90
5246;DHT22;54412;51.206;6.888;2023-06-14T03:40:49;20.00;90.10
5246;DHT22;54412;51.206;6.888;2023-06-14T03:43:14;20.10;90.10
5246;DHT22;54412;51.206;6.888;2023-06-14T03:45:40;20.10;90.10
5246;DHT22;54412;51.206;6.888;2023-06-14T03:50:39;20.00;90.30
5246;DHT22;54412;51.206;6.888;2023-06-14T03:53:06;19.90;90.50
5246;DHT22;54412;51.206;6.888;2023-06-14T03:55:32;19.80;90.60
5246;DHT22;54412;51.206;6.888;2023-06-14T03:57:59;19.70;90.60
5246;DHT22;54412;51.206;6.888;2023-06-14T04:00:25;19.60;91.00
5246;DHT22;54412;51.206;6.888;2023-06-14T04:02:51;19.60;90.90
5246;DHT22;54412;51.206;6.888;2023-06-14T04:05:17;19.50;91.00
5246;DHT22;54412;51.206;6.888;2023-06-14T04:07:45;19.30;91.40
5246;DHT22;54412;51.206;6.888;2023-06-14T04:10:15;19.10;91.80
5246;DHT22;54412;51.206;6.888;2023-06-14T04:12:42;19.10;92.00
5246;DHT22;54412;51.206;6.888;2023-06-14T04:15:08;19.10;92.00
5246;DHT22;54412;51.206;6.888;2023-06-14T04:17:37;19.30;91.70
5246;DHT22;54412;51.206;6.888;2023-06-14T04:20:03;19.50;91.10
5246;DHT22;54412;51.206;6.888;2023-06-14T04:22:31;19.50;90.90
5246;DHT22;54412;51.206;6.888;2023-06-14T04:24:57;19.60;90.80
5246;DHT22;54412;51.206;6.888;2023-06-14T04:27:26;19.70;90.00
5246;DHT22;54412;51.206;6.888;2023-06-14T04:29:53;19.70;89.50
5246;DHT22;54412;51.206;6.888;2023-06-14T04:32:25;19.80;89.50
5246;DHT22;54412;51.206;6.888;2023-06-14T04:34:53;19.80;89.40
5246;DHT22;54412;51.206;6.888;2023-06-14T04:37:23;19.90;89.90
5246;DHT22;54412;51.206;6.888;2023-06-14T04:39:49;19.90;89.70
5246;DHT22;54412;51.206;6.888;2023-06-14T04:42:15;19.90;89.90
5246;DHT22;54412;51.206;6.888;2023-06-14T04:44:42;19.90;89.60
5246;DHT22;54412;51.206;6.888;2023-06-14T04:47:09;19.90;89.70
5246;DHT22;54412;51.206;6.888;2023-06-14T04:49:36;19.70;89.60
5246;DHT22;54412;51.206;6.888;2023-06-14T04:52:02;19.70;90.00
5246;DHT22;54412;51.206;6.888;2023-06-14T04:54:28;19.80;89.70
5246;DHT22;54412;51.206;6.888;2023-06-14T04:56:56;19.80;89.50
5246;DHT22;54412;51.206;6.888;2023-06-14T04:59:22;19.70;89.70
5246;DHT22;54412;51.206;6.888;2023-06-14T05:01:49;19.70;90.00
5246;DHT22;54412;51.206;6.888;2023-06-14T05:04:15;19.70;90.00
5246;DHT22;54412;51.206;6.888;2023-06-14T05:06:42;19.80;90.00
5246;DHT22;54412;51.206;6.888;2023-06-14T05:09:14;19.70;89.90
5246;DHT22;54412;51.206;6.888;2023-06-14T05:11:41;19.90;89.50
5246;DHT22;54412;51.206;6.888;2023-06-14T05:14:13;19.80;89.60
5246;DHT22;54412;51.206;6.888;2023-06-14T05:16:39;19.80;90.00
5246;DHT22;54412;51.206;6.888;2023-06-14T05:19:06;19.90;90.10
5246;DHT22;54412;51.206;6.888;2023-06-14T05:21:32;19.80;90.10
5246;DHT22;54412;51.206;6.888;2023-06-14T05:23:59;19.80;90.20
5246;DHT22;54412;51.206;6.888;2023-06-14T05:26:26;19.70;90.70
5246;DHT22;54412;51.206;6.888;2023-06-14T05:28:58;19.80;90.30
5246;DHT22;54412;51.206;6.888;2023-06-14T05:31:25;19.90;90.80
5246;DHT22;54412;51.206;6.888;2023-06-14T05:33:51;19.90;90.90
5246;DHT22;54412;51.206;6.888;2023-06-14T05:36:18;20.10;90.90
5246;DHT22;54412;51.206;6.888;2023-06-14T05:38:45;20.20;90.50
5246;DHT22;54412;51.206;6.888;2023-06-14T05:41:11;20.40;90.40
5246;DHT22;54412;51.206;6.888;2023-06-14T05:43:37;20.50;90.20
5246;DHT22;54412;51.206;6.888;2023-06-14T05:46:03;20.50;89.90
5246;DHT22;54412;51.206;6.888;2023-06-14T05:48:30;20.50;89.90
5246;DHT22;54412;51.206;6.888;2023-06-14T05:50:56;20.60;88.40
5246;DHT22;54412;51.206;6.888;2023-06-14T05:53:22;20.60;88.30
5246;DHT22;54412;51.206;6.888;2023-06-14T05:55:49;20.70;88.40
5246;DHT22;54412;51.206;6.888;2023-06-14T05:58:17;20.80;88.90
5246;DHT22;54412;51.206;6.888;2023-06-14T06:00:42;20.80;88.40
5246;DHT22;54412;51.206;6.888;2023-06-14T06:03:08;20.90;87.90
5246;DHT22;54412;51.206;6.888;2023-06-14T06:05:34;21.00;87.60
5246;DHT22;54412;51.206;6.888;2023-06-14T06:08:00;21.00;87.40
5246;DHT22;54412;51.206;6.888;2023-06-14T06:10:26;21.00;86.60
5246;DHT22;54412;51.206;6.888;2023-06-14T06:12:51;21.00;86.80
5246;DHT22;54412;51.206;6.888;2023-06-14T06:15:20;21.20;86.70
5246;DHT22;54412;51.206;6.888;2023-06-14T06:17:45;21.30;86.30
5246;DHT22;54412;51.206;6.888;2023-06-14T06:20:12;21.40;86.30
5246;DHT22;54412;51.206;6.888;2023-06-14T06:22:38;21.40;85.30
5246;DHT22;54412;51.206;6.888;2023-06-14T06:25:04;21.50;84.80
5246;DHT22;54412;51.206;6.888;2023-06-14T06:27:32;21.40;85.60
5246;DHT22;54412;51.206;6.888;2023-06-14T06:29:58;21.50;84.80
5246;DHT22;54412;51.206;6.888;2023-06-14T06:32:23;21.40;85.00
5246;DHT22;54412;51.206;6.888;2023-06-14T06:34:50;21.50;85.20
5246;DHT22;54412;51.206;6.888;2023-06-14T06:37:15;21.60;83.40
5246;DHT22;54412;51.206;6.888;2023-06-14T06:39:41;21.80;84.20
5246;DHT22;54412;51.206;6.888;2023-06-14T06:42:07;21.90;83.90
5246;DHT22;54412;51.206;6.888;2023-06-14T06:44:33;22.00;83.60
5246;DHT22;54412;51.206;6.888;2023-06-14T06:46:59;22.00;83.60
5246;DHT22;54412;51.206;6.888;2023-06-14T06:49:25;22.20;82.00
5246;DHT22;54412;51.206;6.888;2023-06-14T06:52:04;22.20;81.80
5246;DHT22;54412;51.206;6.888;2023-06-14T06:54:31;22.30;80.80
5246;DHT22;54412;51.206;6.888;2023-06-14T06:56:58;22.40;80.80
5246;DHT22;54412;51.206;6.888;2023-06-14T06:59:24;22.30;79.30
5246;DHT22;54412;51.206;6.888;2023-06-14T07:01:50;22.30;77.90
5246;DHT22;54412;51.206;6.888;2023-06-14T07:04:16;22.40;79.60
5246;DHT22;54412;51.206;6.888;2023-06-14T07:06:42;22.50;78.10
5246;DHT22;54412;51.206;6.888;2023-06-14T07:09:08;22.20;76.80
5246;DHT22;54412;51.206;6.888;2023-06-14T07:11:38;22.40;78.90
5246;DHT22;54412;51.206;6.888;2023-06-14T07:14:05;22.70;79.50
5246;DHT22;54412;51.206;6.888;2023-06-14T07:16:31;22.70;78.20
5246;DHT22;54412;51.206;6.888;2023-06-14T07:18:57;22.70;76.70
5246;DHT22;54412;51.206;6.888;2023-06-14T07:21:23;22.60;77.00
5246;DHT22;54412;51.206;6.888;2023-06-14T07:23:51;22.70;77.60
5246;DHT22;54412;51.206;6.888;2023-06-14T07:26:18;22.70;77.40
5246;DHT22;54412;51.206;6.888;2023-06-14T07:28:43;22.90;77.20
5246;DHT22;54412;51.206;6.888;2023-06-14T07:31:12;22.90;76.10
5246;DHT22;54412;51.206;6.888;2023-06-14T07:33:39;23.00;77.30
5246;DHT22;54412;51.206;6.888;2023-06-14T07:36:06;23.10;77.20
5246;DHT22;54412;51.206;6.888;2023-06-14T07:38:32;23.20;76.70
5246;DHT22;54412;51.206;6.888;2023-06-14T07:40:58;23.30;75.60
5246;DHT22;54412;51.206;6.888;2023-06-14T07:43:23;23.40;75.00
5246;DHT22;54412;51.206;6.888;2023-06-14T07:45:49;23.40;74.70
5246;DHT22;54412;51.206;6.888;2023-06-14T07:48:15;23.40;74.80
5246;DHT22;54412;51.206;6.888;2023-06-14T07:50:40;23.50;75.00
5246;DHT22;54412;51.206;6.888;2023-06-14T07:53:06;23.40;71.40
5246;DHT22;54412;51.206;6.888;2023-06-14T07:55:32;23.60;73.10
5246;DHT22;54412;51.206;6.888;2023-06-14T07:57:58;23.70;73.40
5246;DHT22;54412;51.206;6.888;2023-06-14T08:00:24;23.70;72.40
5246;DHT22;54412;51.206;6.888;2023-06-14T08:02:50;23.70;73.10
5246;DHT22;54412;51.206;6.888;2023-06-14T08:05:17;23.70;73.80
5246;DHT22;54412;51.206;6.888;2023-06-14T08:07:43;23.90;72.90
5246;DHT22;54412;51.206;6.888;2023-06-14T08:10:09;23.90;71.60
5246;DHT22;54412;51.206;6.888;2023-06-14T08:12:35;24.00;71.00
5246;DHT22;54412;51.206;6.888;2023-06-14T08:15:02;24.00;69.50
5246;DHT22;54412;51.206;6.888;2023-06-14T08:17:28;23.90;69.10
5246;DHT22;54412;51.206;6.888;2023-06-14T08:19:53;23.80;71.10
5246;DHT22;54412;51.206;6.888;2023-06-14T08:22:23;23.90;71.80
5246;DHT22;54412;51.206;6.888;2023-06-14T08:24:50;23.80;71.40
5246;DHT22;54412;51.206;6.888;2023-06-14T08:27:16;24.00;70.90
5246;DHT22;54412;51.206;6.888;2023-06-14T08:29:41;24.00;71.00
5246;DHT22;54412;51.206;6.888;2023-06-14T08:32:07;23.90;71.60
5246;DHT22;54412;51.206;6.888;2023-06-14T08:34:33;24.00;73.80
5246;DHT22;54412;51.206;6.888;2023-06-14T08:36:59;24.30;73.60
5246;DHT22;54412;51.206;6.888;2023-06-14T08:39:24;24.40;72.40
5246;DHT22;54412;51.206;6.888;2023-06-14T08:41:51;24.60;74.00
5246;DHT22;54412;51.206;6.888;2023-06-14T08:44:18;24.60;72.80
5246;DHT22;54412;51.206;6.888;2023-06-14T08:46:43;24.60;73.50
5246;DHT22;54412;51.206;6.888;2023-06-14T08:49:12;24.60;72.30
5246;DHT22;54412;51.206;6.888;2023-06-14T08:51:38;24.60;72.70
5246;DHT22;54412;51.206;6.888;2023-06-14T08:54:05;24.50;72.70
5246;DHT22;54412;51.206;6.888;2023-06-14T08:56:32;24.50;73.10
5246;DHT22;54412;51.206;6.888;2023-06-14T08:59:00;24.20;72.50
5246;DHT22;54412;51.206;6.888;2023-06-14T09:01:36;24.40;74.40
5246;DHT22;54412;51.206;6.888;2023-06-14T09:04:03;24.60;73.80
5246;DHT22;54412;51.206;6.888;2023-06-14T09:06:31;24.70;75.30
5246;DHT22;54412;51.206;6.888;2023-06-14T09:08:57;24.70;75.00
5246;DHT22;54412;51.206;6.888;2023-06-14T09:11:23;24.60;73.50
5246;DHT22;54412;51.206;6.888;2023-06-14T09:13:51;24.30;76.30
5246;DHT22;54412;51.206;6.888;2023-06-14T09:16:17;24.80;76.30
5246;DHT22;54412;51.206;6.888;2023-06-14T09:18:44;24.90;75.30
5246;DHT22;54412;51.206;6.888;2023-06-14T09:21:14;25.10;75.00
5246;DHT22;54412;51.206;6.888;2023-06-14T09:23:45;25.20;74.90
5246;DHT22;54412;51.206;6.888;2023-06-14T09:26:14;25.20;75.10
5246;DHT22;54412;51.206;6.888;2023-06-14T09:28:42;25.20;72.50
5246;DHT22;54412;51.206;6.888;2023-06-14T09:31:14;25.20;72.10
5246;DHT22;54412;51.206;6.888;2023-06-14T09:33:48;25.10;72.00
5246;DHT22;54412;51.206;6.888;2023-06-14T09:36:22;25.20;72.50
5246;DHT22;54412;51.206;6.888;2023-06-14T09:39:00;25.20;72.60
5246;DHT22;54412;51.206;6.888;2023-06-14T09:41:37;25.40;73.00
5246;DHT22;54412;51.206;6.888;2023-06-14T09:44:06;25.40;71.80
5246;DHT22;54412;51.206;6.888;2023-06-14T09:46:33;25.50;71.90
5246;DHT22;54412;51.206;6.888;2023-06-14T09:49:01;25.30;69.20
5246;DHT22;54412;51.206;6.888;2023-06-14T09:51:29;25.30;70.00
5246;DHT22;54412;51.206;6.888;2023-06-14T09:54:02;25.40;71.30
5246;DHT22;54412;51.206;6.888;2023-06-14T09:56:33;25.70;70.60
5246;DHT22;54412;51.206;6.888;2023-06-14T09:59:05;25.60;71.20
5246;DHT22;54412;51.206;6.888;2023-06-14T10:01:36;25.40;68.60
5246;DHT22;54412;51.206;6.888;2023-06-14T10:04:10;25.30;69.90
5246;DHT22;54412;51.206;6.888;2023-06-14T10:06:37;25.40;69.50
5246;DHT22;54412;51.206;6.888;2023-06-14T10:09:10;25.40;70.50
5246;DHT22;54412;51.206;6.888;2023-06-14T10:11:36;25.60;71.20
5246;DHT22;54412;51.206;6.888;2023-06-14T10:14:07;25.60;68.80
5246;DHT22;54412;51.206;6.888;2023-06-14T10:16:39;25.50;70.20
5246;DHT22;54412;51.206;6.888;2023-06-14T10:19:28;25.60;71.60
5246;DHT22;54412;51.206;6.888;2023-06-14T10:22:06;25.80;70.80
5246;DHT22;54412;51.206;6.888;2023-06-14T10:24:43;25.70;69.90
5246;DHT22;54412;51.206;6.888;2023-06-14T10:27:13;25.70;69.70
5246;DHT22;54412;51.206;6.888;2023-06-14T10:32:20;25.80;71.80
5246;DHT22;54412;51.206;6.888;2023-06-14T10:35:04;25.80;69.80
5246;DHT22;54412;51.206;6.888;2023-06-14T10:37:32;25.90;70.90
5246;DHT22;54412;51.206;6.888;2023-06-14T10:39:58;25.90;71.40
5246;DHT22;54412;51.206;6.888;2023-06-14T10:42:31;25.70;70.50
5246;DHT22;54412;51.206;6.888;2023-06-14T10:44:58;25.80;70.80
5246;DHT22;54412;51.206;6.888;2023-06-14T10:47:26;25.90;71.20
5246;DHT22;54412;51.206;6.888;2023-06-14T10:50:02;26.20;72.50
5246;DHT22;54412;51.206;6.888;2023-06-14T10:52:41;26.20;70.10
5246;DHT22;54412;51.206;6.888;2023-06-14T10:55:09;26.40;70.90
5246;DHT22;54412;51.206;6.888;2023-06-14T10:57:53;26.50;70.70
5246;DHT22;54412;51.206;6.888;2023-06-14T11:00:25;26.40;70.80
5246;DHT22;54412;51.206;6.888;2023-06-14T11:06:13;26.30;71.60
5246;DHT22;54412;51.206;6.888;2023-06-14T11:11:42;26.60;72.90
5246;DHT22;54412;51.206;6.888;2023-06-14T11:14:08;26.60;71.60
5246;DHT22;54412;51.206;6.888;2023-06-14T11:16:36;26.50;70.70
5246;DHT22;54412;51.206;6.888;2023-06-14T11:19:02;26.50;71.20
5246;DHT22;54412;51.206;6.888;2023-06-14T11:21:32;26.60;71.20
5246;DHT22;54412;51.206;6.888;2023-06-14T11:23:58;26.60;71.70
5246;DHT22;54412;51.206;6.888;2023-06-14T11:26:31;26.70;71.20
5246;DHT22;54412;51.206;6.888;2023-06-14T11:28:59;26.70;71.30
5246;DHT22;54412;51.206;6.888;2023-06-14T11:31:27;26.70;71.50
5246;DHT22;54412;51.206;6.888;2023-06-14T11:33:54;26.70;71.40
5246;DHT22;54412;51.206;6.888;2023-06-14T11:36:22;26.70;70.30
5246;DHT22;54412;51.206;6.888;2023-06-14T11:38:49;26.60;70.60
5246;DHT22;54412;51.206;6.888;2023-06-14T11:41:15;26.60;69.40
5246;DHT22;54412;51.206;6.888;2023-06-14T11:43:41;26.70;72.50
5246;DHT22;54412;51.206;6.888;2023-06-14T11:46:13;26.70;70.10
5246;DHT22;54412;51.206;6.888;2023-06-14T11:48:42;26.50;70.20
5246;DHT22;54412;51.206;6.888;2023-06-14T11:51:08;26.60;70.10
5246;DHT22;54412;51.206;6.888;2023-06-14T11:53:34;26.70;70.30
5246;DHT22;54412;51.206;6.888;2023-06-14T11:56:01;26.80;70.60
5246;DHT22;54412;51.206;6.888;2023-06-14T11:58:29;26.80;69.60
5246;DHT22;54412;51.206;6.888;2023-06-14T12:00:55;27.10;69.80
5246;DHT22;54412;51.206;6.888;2023-06-14T12:03:25;27.10;69.60
5246;DHT22;54412;51.206;6.888;2023-06-14T12:06:10;26.70;69.10
5246;DHT22;54412;51.206;6.888;2023-06-14T12:08:37;26.80;70.20
5246;DHT22;54412;51.206;6.888;2023-06-14T12:11:15;27.00;71.00
5246;DHT22;54412;51.206;6.888;2023-06-14T12:13:42;27.10;69.90
5246;DHT22;54412;51.206;6.888;2023-06-14T12:16:12;27.10;70.60
5246;DHT22;54412;51.206;6.888;2023-06-14T12:18:39;27.20;70.30
5246;DHT22;54412;51.206;6.888;2023-06-14T12:21:07;27.40;70.70
5246;DHT22;54412;51.206;6.888;2023-06-14T12:23:42;27.30;69.30
5246;DHT22;54412;51.206;6.888;2023-06-14T12:26:21;27.30;70.00
5246;DHT22;54412;51.206;6.888;2023-06-14T12:28:51;27.50;70.20
5246;DHT22;54412;51.206;6.888;2023-06-14T12:31:17;27.60;69.30
5246;DHT22;54412;51.206;6.888;2023-06-14T12:33:45;27.60;69.40
5246;DHT22;54412;51.206;6.888;2023-06-14T12:36:14;27.40;69.60
5246;DHT22;54412;51.206;6.888;2023-06-14T12:38:40;27.40;70.90
5246;DHT22;54412;51.206;6.888;2023-06-14T12:41:06;27.50;69.20
5246;DHT22;54412;51.206;6.888;2023-06-14T12:43:33;27.70;70.70
5246;DHT22;54412;51.206;6.888;2023-06-14T12:45:59;27.60;70.20
5246;DHT22;54412;51.206;6.888;2023-06-14T12:48:26;27.20;69.80
5246;DHT22;54412;51.206;6.888;2023-06-14T12:50:56;27.30;70.20
5246;DHT22;54412;51.206;6.888;2023-06-14T12:53:23;27.40;71.20
5246;DHT22;54412;51.206;6.888;2023-06-14T12:55:49;27.30;70.00
5246;DHT22;54412;51.206;6.888;2023-06-14T12:58:14;27.30;70.60
5246;DHT22;54412;51.206;6.888;2023-06-14T13:00:42;27.00;69.30
5246;DHT22;54412;51.206;6.888;2023-06-14T13:03:10;27.20;72.10
5246;DHT22;54412;51.206;6.888;2023-06-14T13:05:36;27.40;71.40
5246;DHT22;54412;51.206;6.888;2023-06-14T13:08:02;27.80;71.10
5246;DHT22;54412;51.206;6.888;2023-06-14T13:10:28;28.00;70.40
5246;DHT22;54412;51.206;6.888;2023-06-14T13:12:54;28.10;70.60
5246;DHT22;54412;51.206;6.888;2023-06-14T13:15:20;28.00;69.10
5246;DHT22;54412;51.206;6.888;2023-06-14T13:17:46;27.90;70.10
5246;DHT22;54412;51.206;6.888;2023-06-14T13:20:14;27.90;70.20
5246;DHT22;54412;51.206;6.888;2023-06-14T13:22:41;27.90;68.90
5246;DHT22;54412;51.206;6.888;2023-06-14T13:25:07;27.80;69.00
5246;DHT22;54412;51.206;6.888;2023-06-14T13:27:33;27.90;69.30
5246;DHT22;54412;51.206;6.888;2023-06-14T13:29:58;28.00;70.40
5246;DHT22;54412;51.206;6.888;2023-06-14T13:32:24;27.90;68.00
5246;DHT22;54412;51.206;6.888;2023-06-14T13:34:50;27.80;68.90
5246;DHT22;54412;51.206;6.888;2023-06-14T13:37:16;27.70;69.10
5246;DHT22;54412;51.206;6.888;2023-06-14T13:39:42;27.60;69.10
5246;DHT22;54412;51.206;6.888;2023-06-14T13:42:08;27.80;70.40
5246;DHT22;54412;51.206;6.888;2023-06-14T13:44:33;27.70;68.40
5246;DHT22;54412;51.206;6.888;2023-06-14T13:47:00;27.70;68.50
5246;DHT22;54412;51.206;6.888;2023-06-14T13:49:25;27.70;70.30
5246;DHT22;54412;51.206;6.888;2023-06-14T13:51:51;27.80;70.40
5246;DHT22;54412;51.206;6.888;2023-06-14T13:54:19;27.70;70.70
5246;DHT22;54412;51.206;6.888;2023-06-14T13:56:46;27.90;71.20
5246;DHT22;54412;51.206;6.888;2023-06-14T13:59:12;27.90;70.30
5246;DHT22;54412;51.206;6.888;2023-06-14T14:01:39;27.80;69.90
5246;DHT22;54412;51.206;6.888;2023-06-14T14:04:05;27.80;68.10
5246;DHT22;54412;51.206;6.888;2023-06-14T14:06:31;27.70;70.20
5246;DHT22;54412;51.206;6.888;2023-06-14T14:08:57;27.40;69.00
5246;DHT22;54412;51.206;6.888;2023-06-14T14:11:23;27.50;69.50
5246;DHT22;54412;51.206;6.888;2023-06-14T14:13:49;27.30;70.00
5246;DHT22;54412;51.206;6.888;2023-06-14T14:16:15;27.60;72.80
5246;DHT22;54412;51.206;6.888;2023-06-14T14:18:41;27.70;70.70
5246;DHT22;54412;51.206;6.888;2023-06-14T14:21:06;27.70;71.50
5246;DHT22;54412;51.206;6.888;2023-06-14T14:23:32;27.40;70.10
5246;DHT22;54412;51.206;6.888;2023-06-14T14:25:58;27.00;69.20
5246;DHT22;54412;51.206;6.888;2023-06-14T14:28:26;27.00;69.70
5246;DHT22;54412;51.206;6.888;2023-06-14T14:30:51;26.80;71.50
5246;DHT22;54412;51.206;6.888;2023-06-14T14:33:19;27.10;71.40
5246;DHT22;54412;51.206;6.888;2023-06-14T14:35:45;27.20;70.50
5246;DHT22;54412;51.206;6.888;2023-06-14T14:38:12;27.30;71.10
5246;DHT22;54412;51.206;6.888;2023-06-14T14:40:39;27.50;70.50
5246;DHT22;54412;51.206;6.888;2023-06-14T14:43:06;27.70;70.70
5246;DHT22;54412;51.206;6.888;2023-06-14T14:45:31;27.70;70.30
5246;DHT22;54412;51.206;6.888;2023-06-14T14:47:57;27.80;71.10
5246;DHT22;54412;51.206;6.888;2023-06-14T14:50:24;27.80;69.50
5246;DHT22;54412;51.206;6.888;2023-06-14T14:52:50;27.70;69.10
5246;DHT22;54412;51.206;6.888;2023-06-14T14:55:16;27.80;69.90
5246;DHT22;54412;51.206;6.888;2023-06-14T14:57:42;27.70;69.30
5246;DHT22;54412;51.206;6.888;2023-06-14T15:00:09;27.60;69.40
5246;DHT22;54412;51.206;6.888;2023-06-14T15:02:35;27.80;70.50
5246;DHT22;54412;51.206;6.888;2023-06-14T15:05:01;27.70;68.10
5246;DHT22;54412;51.206;6.888;2023-06-14T15:07:28;27.60;69.30
5246;DHT22;54412;51.206;6.888;2023-06-14T15:09:55;27.60;70.10
5246;DHT22;54412;51.206;6.888;2023-06-14T15:12:20;27.70;70.00
5246;DHT22;54412;51.206;6.888;2023-06-14T15:14:50;27.70;69.20
5246;DHT22;54412;51.206;6.888;2023-06-14T15:17:16;27.80;68.90
5246;DHT22;54412;51.206;6.888;2023-06-14T15:19:43;27.80;68.10
5246;DHT22;54412;51.206;6.888;2023-06-14T15:22:09;27.40;68.30
5246;DHT22;54412;51.206;6.888;2023-06-14T15:24:35;27.50;68.00
5246;DHT22;54412;51.206;6.888;2023-06-14T15:27:01;27.50;68.20
5246;DHT22;54412;51.206;6.888;2023-06-14T15:29:26;27.50;69.70
5246;DHT22;54412;51.206;6.888;2023-06-14T15:31:52;27.40;70.00
5246;DHT22;54412;51.206;6.888;2023-06-14T15:34:20;27.30;69.80
5246;DHT22;54412;51.206;6.888;2023-06-14T15:36:46;27.30;70.20
5246;DHT22;54412;51.206;6.888;2023-06-14T15:39:12;27.30;69.90
5246;DHT22;54412;51.206;6.888;2023-06-14T15:41:37;27.30;69.50
5246;DHT22;54412;51.206;6.888;2023-06-14T15:44:03;27.40;69.40
5246;DHT22;54412;51.206;6.888;2023-06-14T15:46:29;27.40;68.60
5246;DHT22;54412;51.206;6.888;2023-06-14T15:48:55;27.00;65.30
5246;DHT22;54412;51.206;6.888;2023-06-14T15:51:20;26.90;67.60
5246;DHT22;54412;51.206;6.888;2023-06-14T15:53:46;26.90;65.60
5246;DHT22;54412;51.206;6.888;2023-06-14T15:56:11;27.00;65.90
5246;DHT22;54412;51.206;6.888;2023-06-14T15:58:37;26.90;66.60